Asahi, Japan

7:29 AM JST on April 29, 2017 (GMT +0900)
Asahikawa | | Change Station

Elev 692 ft 43.67 °N, 142.45 °E | Updated 29 minutes ago

Partly Cloudy
Partly Cloudy
50 °F
Feels Like 50 °F
N
16
Wind Variable Wind from South

Today
High -- | Low -- °F
--% Chance of Precip.
Yesterday
High -- | Low -- °F
Precip. -- in
Pressure 29.56 in
Visibility 6.2 miles
Clouds Few 2500 ft
Scattered Clouds 4500 ft
Mostly Cloudy 7000 ft
Dew Point 39 °F
Humidity 66%
Rainfall 0.00 in
Snow Depth Not available.
4:24 AM 6:30 PM
Waxing Crescent, 9% visible
METAR RJEC 282200Z 17014KT 9999 FEW025 SCT045 BKN070 10/04 Q1001
Pressure 29.56 in
Visibility 6.2 miles
Clouds Few 2500 ft
Scattered Clouds 4500 ft
Mostly Cloudy 7000 ft
Dew Point 39 °F
Humidity 66%
Rainfall 0.00 in
Snow Depth Not available.
4:24 AM 6:30 PM
Waxing Crescent, 9% visible
METAR RJEC 282200Z 17014KT 9999 FEW025 SCT045 BKN070 10/04 Q1001

Get Severe Weather Alerts

Thanks for signing up!

Be on the lookout for a verification email in your inbox.

You'll start receiving the daily forecast at 8 AM.

×

10-Day Weather Forecast

No radar image for this location.
×

Almanac

Astronomy

Apr. 29, 2017 Rise Set
Actual Time
Civil Twilight
Nautical Twilight
Astronomical Twilight
Moon
Length of Visible Light
Length of Day
Tomorrow will be .
, % of the Moon is Illuminated

Today's Extremes

Country Highs Country Lows

Community

WunderPhotos

WunderBlog® & News

Nearby

Air Quality

  Air Quality AQ Index Pollutant
Not available.

Snow Depth

Station Depth Elevation

Earthquake Activity

City Distance Mag. Time & Date
Minimum magnitude displayed is 2.5.

Coastal Water Temperatures

Place Temperature

Stations

Nearby Weather Stations

Station Location Temp. Windchill Dew Point Humidity Wind Precip. Elev Updated Type